createdAt,value
2017-06-13T00:01:19.395Z,2.63
2017-06-13T00:03:46.832Z,3.70
2017-06-13T00:06:14.289Z,3.03
2017-06-13T00:08:41.762Z,2.83
2017-06-13T00:11:09.205Z,3.43
2017-06-13T00:13:36.662Z,2.80
2017-06-13T00:16:04.109Z,2.70
2017-06-13T00:18:31.575Z,3.20
2017-06-13T00:20:59.022Z,2.47
2017-06-13T00:23:26.481Z,3.20
2017-06-13T00:25:53.933Z,2.60
2017-06-13T00:28:21.393Z,3.00
2017-06-13T00:30:48.861Z,3.90
2017-06-13T00:33:16.334Z,2.60
2017-06-13T00:35:43.774Z,2.80
2017-06-13T00:38:11.232Z,2.40
2017-06-13T00:40:38.681Z,3.67
2017-06-13T00:43:06.156Z,2.70
2017-06-13T00:45:33.605Z,2.90
2017-06-13T00:48:01.070Z,2.63
2017-06-13T00:50:28.527Z,2.90
2017-06-13T00:52:55.980Z,2.70
2017-06-13T00:55:23.434Z,3.30
2017-06-13T00:57:50.890Z,3.00
2017-06-13T01:00:18.349Z,3.20
2017-06-13T01:02:45.812Z,2.60
2017-06-13T01:05:13.553Z,2.50
2017-06-13T01:07:41.006Z,3.40
2017-06-13T01:10:08.464Z,2.97
2017-06-13T01:12:35.909Z,2.50
2017-06-13T01:15:03.376Z,3.17
2017-06-13T01:17:30.814Z,2.13
2017-06-13T01:19:58.269Z,3.33
2017-06-13T01:22:25.720Z,3.10
2017-06-13T01:24:53.181Z,3.23
2017-06-13T01:27:20.641Z,2.90
2017-06-13T01:29:48.105Z,2.87
2017-06-13T01:32:15.540Z,3.10
2017-06-13T01:34:42.997Z,2.50
2017-06-13T01:37:10.441Z,3.00
2017-06-13T01:39:38.673Z,2.77
2017-06-13T01:42:06.125Z,2.43
2017-06-13T01:44:33.604Z,3.17
2017-06-13T01:47:01.051Z,3.00
2017-06-13T01:49:28.507Z,2.57
2017-06-13T01:51:55.953Z,2.90
2017-06-13T01:54:23.418Z,3.20
2017-06-13T01:56:50.861Z,2.80
2017-06-13T01:59:18.328Z,3.20
2017-06-13T02:01:45.781Z,3.40
2017-06-13T02:04:13.245Z,2.80
2017-06-13T02:06:40.688Z,2.90
2017-06-13T02:09:08.149Z,3.10
2017-06-13T02:11:35.593Z,3.30
2017-06-13T02:14:03.065Z,3.00
2017-06-13T02:16:30.517Z,3.13
2017-06-13T02:18:57.978Z,3.43
2017-06-13T02:21:26.433Z,3.07
2017-06-13T02:23:53.894Z,3.17
2017-06-13T02:26:21.432Z,3.53
2017-06-13T02:28:49.656Z,3.20
2017-06-13T02:31:17.110Z,3.57
2017-06-13T02:33:44.558Z,2.90
2017-06-13T02:36:12.015Z,3.20
2017-06-13T02:38:39.478Z,3.63
2017-06-13T02:41:06.934Z,3.87
2017-06-13T02:43:34.394Z,2.93
2017-06-13T02:46:01.856Z,4.67
2017-06-13T02:48:29.312Z,3.10
2017-06-13T02:50:56.769Z,3.83
2017-06-13T02:53:24.214Z,2.90
2017-06-13T02:55:51.669Z,3.73
2017-06-13T02:58:19.131Z,2.90
2017-06-13T03:00:46.584Z,2.60
2017-06-13T03:03:14.049Z,3.30
2017-06-13T03:05:41.505Z,3.03
2017-06-13T03:08:08.958Z,3.33
2017-06-13T03:10:36.413Z,3.70
2017-06-13T03:13:03.856Z,3.57
2017-06-13T03:15:31.318Z,3.37
2017-06-13T03:17:58.768Z,3.67
2017-06-13T03:20:26.220Z,3.70
2017-06-13T03:22:53.677Z,3.70
2017-06-13T03:25:21.133Z,3.70
2017-06-13T03:27:48.577Z,3.70
2017-06-13T03:30:16.809Z,3.80
2017-06-13T03:32:44.255Z,3.70
2017-06-13T03:35:11.725Z,4.13
2017-06-13T03:37:39.189Z,3.40
2017-06-13T03:40:06.662Z,4.10
2017-06-13T03:42:34.116Z,4.17
2017-06-13T03:45:01.573Z,5.07
2017-06-13T03:47:29.029Z,4.67
2017-06-13T03:49:56.484Z,4.50
2017-06-13T03:52:23.929Z,3.33
2017-06-13T03:54:51.381Z,3.80
2017-06-13T03:57:18.841Z,4.13
2017-06-13T03:59:46.289Z,4.60
2017-06-13T04:02:14.564Z,4.17
2017-06-13T04:04:42.015Z,4.40
2017-06-13T04:07:09.487Z,4.20
2017-06-13T04:09:36.933Z,3.73
2017-06-13T04:12:04.401Z,4.40
2017-06-13T04:14:31.844Z,3.40
2017-06-13T04:16:59.309Z,3.50
2017-06-13T04:19:26.765Z,3.50
2017-06-13T04:21:54.230Z,3.40
2017-06-13T04:24:21.677Z,3.90
2017-06-13T04:26:49.137Z,2.80
2017-06-13T04:29:16.590Z,3.13
2017-06-13T04:31:51.754Z,3.20
2017-06-13T04:34:19.208Z,3.17
2017-06-13T04:36:46.673Z,3.87
2017-06-13T04:39:14.122Z,3.43
2017-06-13T04:41:41.595Z,3.60
2017-06-13T04:44:09.805Z,3.73
2017-06-13T04:46:37.269Z,2.90
2017-06-13T04:49:04.725Z,3.27
2017-06-13T04:51:32.197Z,3.00
2017-06-13T04:53:59.641Z,3.00
2017-06-13T04:56:27.097Z,3.00
2017-06-13T04:58:54.553Z,3.53
2017-06-13T05:01:22.014Z,3.07
2017-06-13T05:03:49.479Z,3.03
2017-06-13T05:06:16.948Z,2.90
2017-06-13T05:08:44.384Z,2.80
2017-06-13T05:11:11.840Z,2.63
2017-06-13T05:13:39.297Z,2.90
2017-06-13T05:16:06.741Z,2.63
2017-06-13T05:18:34.209Z,3.13
2017-06-13T05:21:01.666Z,3.13
2017-06-13T05:23:29.126Z,2.70
2017-06-13T05:25:56.580Z,3.27
2017-06-13T05:28:24.039Z,2.53
2017-06-13T05:30:51.500Z,2.90
2017-06-13T05:33:18.976Z,3.10
2017-06-13T05:35:46.429Z,3.10
2017-06-13T05:38:13.894Z,3.53
2017-06-13T05:40:41.345Z,2.77
2017-06-13T05:43:08.806Z,3.20
2017-06-13T05:45:36.252Z,2.73
2017-06-13T05:48:03.713Z,3.00
2017-06-13T05:50:31.157Z,4.13
2017-06-13T05:52:58.620Z,3.60
2017-06-13T05:55:26.062Z,3.50
2017-06-13T05:57:53.522Z,3.50
2017-06-13T06:00:20.971Z,3.57
2017-06-13T06:02:48.433Z,4.13
2017-06-13T06:05:15.890Z,3.70
2017-06-13T06:07:43.374Z,3.70
2017-06-13T06:10:10.834Z,3.87
2017-06-13T06:12:39.082Z,3.30
2017-06-13T06:15:06.539Z,3.40
2017-06-13T06:17:33.993Z,2.97
2017-06-13T06:20:01.454Z,3.33
2017-06-13T06:22:28.912Z,3.60
2017-06-13T06:24:56.390Z,3.47
2017-06-13T06:27:23.829Z,3.23
2017-06-13T06:29:51.298Z,2.90
2017-06-13T06:32:18.742Z,3.10
2017-06-13T06:34:46.209Z,3.03
2017-06-13T06:37:13.657Z,2.90
2017-06-13T06:39:41.124Z,3.27
2017-06-13T06:42:08.565Z,3.23
2017-06-13T06:44:36.030Z,2.63
2017-06-13T06:47:03.477Z,3.30
2017-06-13T06:49:30.934Z,2.47
2017-06-13T06:51:58.392Z,2.93
2017-06-13T06:54:25.859Z,3.00
2017-06-13T06:56:53.304Z,3.13
2017-06-13T06:59:20.749Z,3.13
2017-06-13T07:01:48.205Z,3.30
2017-06-13T07:04:15.654Z,2.50
2017-06-13T07:06:43.111Z,2.70
2017-06-13T07:09:10.556Z,3.07
2017-06-13T07:11:38.867Z,3.03
2017-06-13T07:14:06.301Z,2.60
2017-06-13T07:16:33.764Z,2.50
2017-06-13T07:19:01.217Z,2.63
2017-06-13T07:21:28.682Z,2.70
2017-06-13T07:23:56.142Z,2.93
2017-06-13T07:26:23.589Z,2.80
2017-06-13T07:28:51.054Z,2.30
2017-06-13T07:31:18.501Z,2.00
2017-06-13T07:33:45.981Z,2.13
2017-06-13T07:36:13.437Z,2.47
2017-06-13T07:38:40.922Z,3.03
2017-06-13T07:41:08.372Z,2.40
2017-06-13T07:43:35.833Z,2.10
2017-06-13T07:46:03.289Z,2.67
2017-06-13T07:48:30.739Z,2.57
2017-06-13T07:50:58.201Z,2.80
2017-06-13T07:53:25.657Z,2.30
2017-06-13T07:55:53.126Z,2.70
2017-06-13T07:58:20.578Z,3.10
2017-06-13T08:00:48.039Z,2.20
2017-06-13T08:03:15.486Z,3.33
2017-06-13T08:05:42.942Z,2.63
2017-06-13T08:08:10.397Z,2.27
2017-06-13T08:10:37.862Z,3.00
2017-06-13T08:13:05.307Z,2.30
2017-06-13T08:15:32.774Z,2.23
2017-06-13T08:18:00.229Z,3.00
2017-06-13T08:20:27.685Z,2.40
2017-06-13T08:22:55.143Z,2.60
2017-06-13T08:25:22.594Z,2.43
2017-06-13T08:27:50.054Z,2.90
2017-06-13T08:30:17.513Z,2.77
2017-06-13T08:32:44.982Z,2.40
2017-06-13T08:35:12.433Z,2.97
2017-06-13T08:37:39.898Z,2.93
2017-06-13T08:40:07.362Z,2.60
2017-06-13T08:42:34.816Z,2.23
2017-06-13T08:45:02.266Z,2.37
2017-06-13T08:47:29.729Z,2.27
2017-06-13T08:49:57.184Z,2.43
2017-06-13T08:52:24.658Z,2.30
2017-06-13T08:54:52.114Z,2.47
2017-06-13T08:57:20.337Z,3.00
2017-06-13T08:59:47.803Z,2.43
2017-06-13T09:02:15.277Z,2.47
2017-06-13T09:04:42.730Z,2.50
2017-06-13T09:07:10.182Z,2.40
2017-06-13T09:09:37.634Z,2.60
2017-06-13T09:12:05.103Z,2.90
2017-06-13T09:14:32.562Z,2.23
2017-06-13T09:17:00.019Z,2.57
2017-06-13T09:19:27.490Z,2.80
2017-06-13T09:21:54.956Z,2.33
2017-06-13T09:24:22.415Z,2.10
2017-06-13T09:26:50.637Z,2.23
2017-06-13T09:29:18.101Z,2.10
2017-06-13T09:31:45.541Z,2.43
2017-06-13T09:34:13.007Z,2.60
2017-06-13T09:36:40.469Z,2.73
2017-06-13T09:39:07.945Z,2.30
2017-06-13T09:41:35.393Z,2.33
2017-06-13T09:44:02.847Z,2.27
2017-06-13T09:46:30.317Z,2.60
2017-06-13T09:48:57.775Z,2.43
2017-06-13T09:51:25.233Z,2.80
2017-06-13T09:53:52.678Z,2.40
2017-06-13T09:56:20.150Z,1.73
2017-06-13T09:58:47.605Z,2.47
2017-06-13T10:01:15.074Z,2.63
2017-06-13T10:03:42.533Z,2.37
2017-06-13T10:06:09.988Z,2.10
2017-06-13T10:08:37.459Z,2.60
2017-06-13T10:11:04.901Z,2.73
2017-06-13T10:13:32.365Z,2.27
2017-06-13T10:15:59.812Z,2.50
2017-06-13T10:18:27.282Z,2.60
2017-06-13T10:20:54.724Z,2.83
2017-06-13T10:23:22.197Z,2.00
2017-06-13T10:25:50.429Z,2.60
2017-06-13T10:28:17.878Z,2.83
2017-06-13T10:30:45.340Z,2.33
2017-06-13T10:33:12.781Z,2.93
2017-06-13T10:35:40.249Z,2.60
2017-06-13T10:38:07.698Z,2.87
2017-06-13T10:40:35.165Z,2.53
2017-06-13T10:43:02.622Z,2.40
2017-06-13T10:45:30.089Z,2.83
2017-06-13T10:47:57.544Z,2.23
2017-06-13T10:50:25.011Z,2.60
2017-06-13T10:52:52.461Z,2.50
2017-06-13T10:55:19.925Z,3.07
2017-06-13T10:57:47.369Z,2.30
2017-06-13T11:00:14.838Z,2.73
2017-06-13T11:02:42.301Z,3.30
2017-06-13T11:05:09.757Z,2.70
2017-06-13T11:07:37.222Z,2.63
2017-06-13T11:10:04.662Z,2.87
2017-06-13T11:12:32.130Z,3.00
2017-06-13T11:14:59.581Z,2.83
2017-06-13T11:17:27.045Z,2.87
2017-06-13T11:19:54.489Z,2.60
2017-06-13T11:22:21.979Z,2.60
2017-06-13T11:24:49.429Z,2.90
2017-06-13T11:27:16.885Z,3.30
2017-06-13T11:29:44.346Z,3.13
2017-06-13T11:32:11.792Z,2.97
2017-06-13T11:34:39.253Z,2.83
2017-06-13T11:37:06.697Z,3.00
2017-06-13T11:39:34.517Z,2.80
2017-06-13T11:42:01.982Z,3.37
2017-06-13T11:44:29.440Z,3.17
2017-06-13T11:46:56.887Z,2.50
2017-06-13T11:49:24.372Z,2.60
2017-06-13T11:51:51.837Z,2.90
2017-06-13T11:54:19.311Z,2.67
2017-06-13T11:56:46.757Z,2.90
2017-06-13T11:59:14.217Z,3.20
2017-06-13T12:01:41.665Z,3.20
2017-06-13T12:04:09.137Z,2.70
2017-06-13T12:06:36.577Z,3.20
2017-06-13T12:09:04.040Z,3.10
2017-06-13T12:11:31.501Z,2.63
2017-06-13T12:13:58.958Z,2.80
2017-06-13T12:16:26.417Z,2.70
2017-06-13T12:18:53.881Z,3.00
2017-06-13T12:21:21.346Z,2.53
2017-06-13T12:23:48.809Z,2.80
2017-06-13T12:26:16.273Z,3.00
2017-06-13T12:28:43.723Z,2.37
2017-06-13T12:31:11.196Z,2.60
2017-06-13T12:33:39.537Z,2.77
2017-06-13T12:36:07.009Z,2.13
2017-06-13T12:38:34.452Z,2.27
2017-06-13T12:41:01.920Z,2.50
2017-06-13T12:43:29.392Z,3.57
2017-06-13T12:45:56.837Z,2.00
2017-06-13T12:48:24.298Z,2.73
2017-06-13T12:50:51.758Z,3.20
2017-06-13T12:53:19.222Z,2.27
2017-06-13T12:55:46.679Z,2.17
2017-06-13T12:58:14.135Z,1.77
2017-06-13T13:00:42.365Z,2.40
2017-06-13T13:03:15.777Z,2.00
2017-06-13T13:05:43.237Z,2.00
2017-06-13T13:08:10.713Z,2.20
2017-06-13T13:10:38.182Z,2.20
2017-06-13T13:13:05.625Z,1.87
2017-06-13T13:15:33.103Z,2.10
2017-06-13T13:18:00.563Z,2.20
2017-06-13T13:20:28.799Z,2.27
2017-06-13T13:22:56.259Z,2.27
2017-06-13T13:25:23.730Z,2.10
2017-06-13T13:27:51.194Z,1.80
2017-06-13T13:30:18.662Z,2.20
2017-06-13T13:32:46.877Z,2.10
2017-06-13T13:35:14.349Z,2.10
2017-06-13T13:37:41.802Z,2.10
2017-06-13T13:40:09.281Z,2.13
2017-06-13T13:42:36.733Z,2.33
2017-06-13T13:45:04.193Z,2.10
2017-06-13T13:47:31.657Z,2.17
2017-06-13T13:49:59.101Z,2.03
2017-06-13T13:52:26.570Z,2.07
2017-06-13T13:54:54.030Z,2.40
2017-06-13T13:57:21.497Z,2.10
2017-06-13T13:59:49.722Z,1.90
2017-06-13T14:02:17.189Z,1.90
2017-06-13T14:04:44.650Z,2.77
2017-06-13T14:07:12.137Z,1.73
2017-06-13T14:09:39.593Z,2.20
2017-06-13T14:12:07.053Z,2.00
2017-06-13T14:14:34.519Z,2.30
2017-06-13T14:17:01.965Z,2.33
2017-06-13T14:19:29.433Z,2.33
2017-06-13T14:21:57.666Z,2.20
2017-06-13T14:24:25.162Z,2.20
2017-06-13T14:26:52.623Z,2.40
2017-06-13T14:29:20.087Z,2.67
2017-06-13T14:31:47.551Z,2.40
2017-06-13T14:34:15.810Z,2.37
2017-06-13T14:36:43.267Z,2.40
2017-06-13T14:39:10.743Z,2.27
2017-06-13T14:41:38.194Z,2.50
2017-06-13T14:44:05.670Z,2.73
2017-06-13T14:46:33.123Z,2.40
2017-06-13T14:49:00.573Z,2.40
2017-06-13T14:51:28.038Z,2.53
2017-06-13T14:53:55.494Z,2.20
2017-06-13T14:56:22.965Z,2.70
2017-06-13T14:58:50.402Z,3.33
2017-06-13T15:01:17.873Z,2.57
2017-06-13T15:03:45.327Z,3.07
2017-06-13T15:06:12.804Z,3.50
2017-06-13T15:08:40.276Z,2.57
2017-06-13T15:11:07.767Z,3.30
2017-06-13T15:13:35.231Z,3.30
2017-06-13T15:16:05.917Z,3.33
2017-06-13T15:18:33.391Z,3.20
2017-06-13T15:21:00.847Z,2.90
2017-06-13T15:23:28.306Z,2.90
2017-06-13T15:25:55.753Z,2.90
2017-06-13T15:28:23.214Z,3.70
2017-06-13T15:30:50.673Z,3.70
2017-06-13T15:33:18.130Z,3.30
2017-06-13T15:35:45.750Z,3.63
2017-06-13T15:38:13.225Z,4.63
2017-06-13T15:40:40.679Z,3.50
2017-06-13T15:43:08.139Z,3.70
2017-06-13T15:45:35.609Z,3.43
2017-06-13T15:48:03.062Z,3.60
2017-06-13T15:50:30.538Z,4.10
2017-06-13T15:52:57.994Z,3.87
2017-06-13T15:55:25.461Z,3.80
2017-06-13T15:57:52.913Z,3.43
2017-06-13T16:00:20.373Z,3.50
2017-06-13T16:02:47.847Z,3.73
2017-06-13T16:05:15.322Z,3.87
2017-06-13T16:07:43.530Z,3.73
2017-06-13T16:10:11.005Z,3.73
2017-06-13T16:12:38.453Z,4.47
2017-06-13T16:15:05.911Z,3.60
2017-06-13T16:17:33.370Z,3.90
2017-06-13T16:20:00.835Z,4.40
2017-06-13T16:22:28.306Z,3.40
2017-06-13T16:24:55.749Z,3.10
2017-06-13T16:27:23.214Z,3.77
2017-06-13T16:29:50.665Z,3.10
2017-06-13T16:32:18.133Z,3.30
2017-06-13T16:34:45.585Z,3.23
2017-06-13T16:37:13.056Z,3.13
2017-06-13T16:39:40.512Z,2.70
2017-06-13T16:42:07.993Z,3.90
2017-06-13T16:44:35.457Z,3.10
2017-06-13T16:47:02.905Z,3.03
2017-06-13T16:49:30.369Z,3.30
2017-06-13T16:51:57.827Z,2.60
2017-06-13T16:54:25.281Z,2.70
2017-06-13T16:56:52.753Z,3.00
2017-06-13T16:59:20.231Z,2.97
2017-06-13T17:01:47.684Z,3.10
2017-06-13T17:04:15.159Z,3.20
2017-06-13T17:06:42.617Z,3.20
2017-06-13T17:09:10.090Z,2.97
2017-06-13T17:11:37.556Z,3.20
2017-06-13T17:14:05.028Z,2.90
2017-06-13T17:16:32.474Z,2.87
2017-06-13T17:18:59.921Z,3.20
2017-06-13T17:21:27.395Z,3.70
2017-06-13T17:23:55.614Z,3.70
2017-06-13T17:26:23.082Z,3.40
2017-06-13T17:28:50.533Z,3.40
2017-06-13T17:31:18.006Z,4.00
2017-06-13T17:33:45.469Z,3.30
2017-06-13T17:36:12.942Z,3.97
2017-06-13T17:38:40.389Z,3.50
2017-06-13T17:41:07.850Z,3.80
2017-06-13T17:43:35.309Z,3.60
2017-06-13T17:46:02.761Z,4.10
2017-06-13T17:48:30.221Z,4.10
2017-06-13T17:50:57.677Z,3.00
2017-06-13T17:53:25.144Z,3.63
2017-06-13T17:55:52.594Z,3.47
2017-06-13T17:58:20.065Z,3.33
2017-06-13T18:00:47.517Z,4.00
2017-06-13T18:03:15.766Z,3.30
2017-06-13T18:05:43.226Z,3.80
2017-06-13T18:08:10.678Z,3.70
2017-06-13T18:10:38.151Z,3.53
2017-06-13T18:13:05.610Z,3.33
2017-06-13T18:15:33.069Z,3.50
2017-06-13T18:18:00.522Z,3.90
2017-06-13T18:20:27.984Z,3.90
2017-06-13T18:22:55.433Z,4.40
2017-06-13T18:25:22.894Z,4.43
2017-06-13T18:27:50.357Z,3.80
2017-06-13T18:30:17.837Z,4.00
2017-06-13T18:32:46.065Z,4.17
2017-06-13T18:35:13.521Z,3.70
2017-06-13T18:37:40.985Z,3.87
2017-06-13T18:40:08.448Z,3.80
2017-06-13T18:42:35.924Z,3.97
2017-06-13T18:45:03.365Z,3.00
2017-06-13T18:47:30.825Z,4.23
2017-06-13T18:49:58.273Z,4.33
2017-06-13T18:52:25.741Z,3.73
2017-06-13T18:54:53.189Z,3.70
2017-06-13T18:57:20.661Z,3.77
2017-06-13T18:59:48.113Z,3.90
2017-06-13T19:02:15.565Z,3.63
2017-06-13T19:04:46.893Z,3.50
2017-06-13T19:07:14.341Z,3.97
2017-06-13T19:09:41.807Z,4.00
2017-06-13T19:12:09.254Z,4.30
2017-06-13T19:14:36.726Z,4.30
2017-06-13T19:17:04.182Z,4.73
2017-06-13T19:19:31.638Z,4.80
2017-06-13T19:21:59.076Z,5.47
2017-06-13T19:24:26.537Z,5.07
2017-06-13T19:26:54.005Z,4.60
2017-06-13T19:29:21.473Z,4.57
2017-06-13T19:31:48.927Z,4.90
2017-06-13T19:34:16.387Z,4.20
2017-06-13T19:36:43.845Z,4.50
2017-06-13T19:39:11.297Z,4.17
2017-06-13T19:41:38.759Z,4.80
2017-06-13T19:44:06.209Z,4.43
2017-06-13T19:46:33.674Z,4.63
2017-06-13T19:49:01.129Z,5.10
2017-06-13T19:51:28.602Z,4.93
2017-06-13T19:53:56.049Z,5.20
2017-06-13T19:56:23.518Z,5.17
2017-06-13T19:58:50.971Z,4.50
2017-06-13T20:01:18.413Z,4.77
2017-06-13T20:03:45.886Z,5.00
2017-06-13T20:06:13.339Z,5.43
2017-06-13T20:08:40.799Z,5.53
2017-06-13T20:11:08.250Z,6.17
2017-06-13T20:13:35.710Z,7.00
2017-06-13T20:16:03.165Z,5.00
2017-06-13T20:18:30.622Z,5.03
2017-06-13T20:20:58.077Z,5.67
2017-06-13T20:23:25.541Z,5.10
2017-06-13T20:25:56.979Z,5.47
2017-06-13T20:28:24.449Z,5.50
2017-06-13T20:30:51.903Z,5.57
2017-06-13T20:33:19.376Z,6.00
2017-06-13T20:35:47.581Z,5.97
2017-06-13T20:38:15.029Z,8.00
2017-06-13T20:40:42.490Z,6.67
2017-06-13T20:43:09.933Z,6.47
2017-06-13T20:45:38.162Z,8.00
2017-06-13T20:48:05.618Z,7.27
2017-06-13T20:50:33.078Z,7.60
2017-06-13T20:53:00.533Z,7.10
2017-06-13T20:55:27.993Z,6.50
2017-06-13T20:57:55.454Z,6.20
2017-06-13T21:00:22.929Z,6.40
2017-06-13T21:02:50.369Z,7.07
2017-06-13T21:05:17.821Z,7.20
2017-06-13T21:07:45.294Z,6.20
2017-06-13T21:10:12.749Z,6.80
2017-06-13T21:12:40.209Z,6.70
2017-06-13T21:15:07.662Z,7.40
2017-06-13T21:17:35.117Z,6.40
2017-06-13T21:20:02.566Z,6.50
2017-06-13T21:22:30.029Z,6.87
2017-06-13T21:24:57.483Z,6.50
2017-06-13T21:27:24.930Z,6.97
2017-06-13T21:29:52.398Z,6.80
2017-06-13T21:32:19.833Z,7.30
2017-06-13T21:34:47.292Z,7.23
2017-06-13T21:37:14.742Z,8.43
2017-06-13T21:39:42.214Z,7.90
2017-06-13T21:42:09.666Z,7.50
2017-06-13T21:44:37.137Z,7.77
2017-06-13T21:47:04.596Z,7.63
2017-06-13T21:49:32.076Z,9.10
2017-06-13T21:51:59.579Z,8.10
2017-06-13T21:54:27.029Z,8.27
2017-06-13T21:56:54.494Z,7.23
2017-06-13T21:59:21.948Z,7.30
2017-06-13T22:01:49.412Z,7.10
2017-06-13T22:04:16.857Z,7.63
2017-06-13T22:06:44.321Z,7.77
2017-06-13T22:09:11.777Z,7.47
2017-06-13T22:11:39.241Z,6.33
2017-06-13T22:14:06.698Z,7.13
2017-06-13T22:16:34.149Z,7.53
2017-06-13T22:19:01.606Z,6.87
2017-06-13T22:21:29.066Z,7.23
2017-06-13T22:23:56.517Z,7.40
2017-06-13T22:26:23.990Z,7.13
2017-06-13T22:28:51.437Z,7.10
2017-06-13T22:31:18.913Z,7.17
2017-06-13T22:33:46.371Z,7.17
2017-06-13T22:36:13.810Z,6.83
2017-06-13T22:38:41.278Z,6.67
2017-06-13T22:41:08.725Z,6.97
2017-06-13T22:43:36.197Z,8.10
2017-06-13T22:49:20.682Z,7.60
2017-06-13T22:51:48.149Z,7.97
2017-06-13T22:54:15.593Z,7.10
2017-06-13T22:56:43.051Z,8.00
2017-06-13T22:59:10.514Z,7.27
2017-06-13T23:01:37.965Z,6.90
2017-06-13T23:04:05.429Z,8.90
2017-06-13T23:06:32.878Z,8.37
2017-06-13T23:09:00.345Z,8.50
2017-06-13T23:11:27.806Z,8.30
2017-06-13T23:13:55.275Z,7.80
2017-06-13T23:16:22.716Z,7.87
2017-06-13T23:18:50.193Z,6.83
2017-06-13T23:21:18.417Z,7.80
2017-06-13T23:23:45.893Z,8.83
2017-06-13T23:26:13.345Z,10.43
2017-06-13T23:28:40.813Z,9.00
2017-06-13T23:31:08.271Z,10.13
2017-06-13T23:33:35.709Z,7.30
2017-06-13T23:36:03.177Z,8.70
2017-06-13T23:38:30.637Z,10.17
2017-06-13T23:40:58.105Z,9.63
2017-06-13T23:43:25.561Z,9.60
2017-06-13T23:45:53.033Z,10.00
2017-06-13T23:48:21.261Z,9.90
2017-06-13T23:50:48.733Z,9.03
2017-06-13T23:53:16.193Z,9.20
2017-06-13T23:55:43.657Z,9.77
2017-06-13T23:58:11.109Z,9.53
